Wetterdaten: Woche 16.08.04 - 22.08.04 (KW34)
Datum Zeit Temperatur Luftfeuchte Luftdruck Regenmenge Wind Richtung Taupunkt Windchill
16.08.2004 00:00 14.0 C 95 % 1017.5 hPa 0.0 l/m 0.4 km/h (0 Bft) O 13.2 C 14.0 C
16.08.2004 01:00 13.1 C 97 % 1017.2 hPa 0.0 l/m 1.6 km/h (1 Bft) O 12.6 C 13.1 C
16.08.2004 02:00 12.3 C 98 % 1016.9 hPa 0.0 l/m 1.0 km/h (0 Bft) O 12.0 C 12.3 C
16.08.2004 03:00 11.9 C 99 % 1016.3 hPa 0.0 l/m 0.5 km/h (0 Bft) O 11.8 C 11.9 C
16.08.2004 04:00 11.4 C 100 % 1016.3 hPa 0.0 l/m 1.6 km/h (1 Bft) O 11.4 C 11.4 C
16.08.2004 05:00 11.1 C 100 % 1016.4 hPa 0.0 l/m 1.6 km/h (1 Bft) O 11.1 C 11.1 C
16.08.2004 06:00 11.0 C 100 % 1016.5 hPa 0.0 l/m 4.1 km/h (1 Bft) O 11.0 C 11.0 C
16.08.2004 07:00 12.0 C 99 % 1016.0 hPa 0.0 l/m 0.7 km/h (0 Bft) O-SO 11.9 C 12.0 C
16.08.2004 08:00 14.6 C 89 % 1015.0 hPa 0.0 l/m 0.1 km/h (0 Bft) N 12.7 C 14.6 C
16.08.2004 09:00 16.3 C 82 % 1014.7 hPa 0.0 l/m 0.0 km/h (0 Bft) N 13.2 C 16.3 C
16.08.2004 10:00 18.2 C 76 % 1014.2 hPa 0.0 l/m 0.3 km/h (0 Bft) W-NW 13.8 C 18.2 C
16.08.2004 11:00 21.4 C 63 % 1013.3 hPa 0.0 l/m 5.5 km/h (1 Bft) O-SO 14.0 C 21.4 C
16.08.2004 12:00 24.0 C 54 % 1012.7 hPa 0.0 l/m 3.9 km/h (1 Bft) W-NW 14.1 C 24.0 C
16.08.2004 13:00 24.1 C 52 % 1013.3 hPa 0.0 l/m 15.5 km/h (3 Bft) NW 13.6 C 24.1 C
16.08.2004 14:00 22.5 C 57 % 1013.5 hPa 0.0 l/m 16.6 km/h (3 Bft) W-NW 13.6 C 22.5 C
16.08.2004 15:00 21.3 C 67 % 1014.1 hPa 0.0 l/m 7.7 km/h (2 Bft) W-NW 15.0 C 21.3 C
16.08.2004 16:00 20.2 C 79 % 1013.8 hPa 0.0 l/m 4.6 km/h (1 Bft) O-SO 16.5 C 20.2 C
16.08.2004 17:00 20.2 C 81 % 1013.5 hPa 0.0 l/m 0.9 km/h (0 Bft) W-NW 16.9 C 20.2 C
16.08.2004 18:00 21.6 C 76 % 1012.8 hPa 0.0 l/m 0.0 km/h (0 Bft) N 17.0 C 21.6 C
16.08.2004 19:00 21.5 C 74 % 1012.0 hPa 0.0 l/m 1.8 km/h (1 Bft) W 16.6 C 21.5 C
16.08.2004 20:00 19.0 C 89 % 1011.9 hPa 0.0 l/m 5.4 km/h (1 Bft) O 17.2 C 19.0 C
16.08.2004 21:00 18.3 C 95 % 1012.4 hPa 0.0 l/m 2.0 km/h (1 Bft) O-SO 17.4 C 18.3 C
16.08.2004 22:00 18.0 C 96 % 1012.4 hPa 0.0 l/m 0.0 km/h (0 Bft) N 17.4 C 18.0 C
16.08.2004 23:00 17.7 C 97 % 1012.5 hPa 0.0 l/m 0.8 km/h (0 Bft) O-SO 17.3 C 17.7 C
17.08.2004 00:00 17.6 C 99 % 1012.5 hPa 0.0 l/m 0.2 km/h (0 Bft) O-SO 17.4 C 17.6 C
17.08.2004 01:00 17.5 C 99 % 1012.5 hPa 0.0 l/m 0.0 km/h (0 Bft) N 17.4 C 17.5 C
17.08.2004 02:00 17.3 C 99 % 1012.5 hPa 0.0 l/m 0.0 km/h (0 Bft) N 17.1 C 17.3 C
17.08.2004 03:00 17.2 C 99 % 1011.8 hPa 0.0 l/m 0.0 km/h (0 Bft) N 17.0 C 17.2 C
17.08.2004 04:00 17.2 C 98 % 1011.5 hPa 0.0 l/m 0.0 km/h (0 Bft) N 16.9 C 17.2 C
17.08.2004 05:00 17.2 C 97 % 1011.5 hPa 0.0 l/m 0.0 km/h (0 Bft) N 16.7 C 17.2 C
17.08.2004 06:00 16.9 C 97 % 1011.5 hPa 0.0 l/m 0.0 km/h (0 Bft) N 16.4 C 16.9 C
17.08.2004 07:00 16.9 C 99 % 1011.5 hPa 0.3 l/m 0.0 km/h (0 Bft) N 16.8 C 16.9 C
17.08.2004 08:00 17.1 C 100 % 1012.0 hPa 2.8 l/m 0.0 km/h (0 Bft) N 17.1 C 17.1 C
17.08.2004 09:00 17.5 C 100 % 1012.5 hPa 2.5 l/m 0.3 km/h (0 Bft) S 17.5 C 17.5 C
17.08.2004 10:00 18.0 C 100 % 1012.4 hPa 0.9 l/m 0.0 km/h (0 Bft) N 18.0 C 18.0 C
17.08.2004 11:00 18.4 C 100 % 1012.4 hPa 0.9 l/m 0.1 km/h (0 Bft) N 18.4 C 18.4 C
17.08.2004 12:00 18.7 C 99 % 1011.4 hPa 0.6 l/m 0.0 km/h (0 Bft) N 18.5 C 18.7 C
17.08.2004 13:00 19.0 C 99 % 1011.3 hPa 0.9 l/m 0.4 km/h (0 Bft) O-SO 18.8 C 19.0 C
17.08.2004 14:00 19.1 C 96 % 1010.5 hPa 0.3 l/m 0.1 km/h (0 Bft) N 18.5 C 19.1 C
17.08.2004 15:00 19.5 C 97 % 1010.2 hPa 0.0 l/m 0.4 km/h (0 Bft) O 19.0 C 19.5 C
17.08.2004 16:00 20.7 C 88 % 1010.0 hPa 0.0 l/m 0.2 km/h (0 Bft) O-SO 18.7 C 20.7 C
17.08.2004 17:00 22.4 C 74 % 1009.5 hPa 0.0 l/m 1.2 km/h (1 Bft) O 17.5 C 22.4 C
17.08.2004 18:00 21.3 C 80 % 1008.7 hPa 0.0 l/m 0.3 km/h (0 Bft) N-NO 17.8 C 21.3 C
17.08.2004 19:00 19.3 C 93 % 1010.4 hPa 4.6 l/m 10.0 km/h (2 Bft) O-SO 18.2 C 19.3 C
17.08.2004 20:00 18.5 C 99 % 1009.4 hPa 0.0 l/m 2.3 km/h (1 Bft) O 18.3 C 18.5 C
17.08.2004 21:00 18.2 C 100 % 1009.3 hPa 0.0 l/m 0.3 km/h (0 Bft) NO 18.2 C 18.2 C
17.08.2004 22:00 17.9 C 100 % 1009.2 hPa 0.0 l/m 0.3 km/h (0 Bft) O-NO 17.9 C 17.9 C
17.08.2004 23:00 17.9 C 100 % 1009.3 hPa 0.0 l/m 0.0 km/h (0 Bft) N 17.9 C 17.9 C
18.08.2004 00:00 17.7 C 100 % 1009.5 hPa 0.0 l/m 0.0 km/h (0 Bft) N 17.7 C 17.7 C
18.08.2004 01:00 17.4 C 100 % 1010.6 hPa 0.6 l/m 3.0 km/h (1 Bft) O-SO 17.4 C 17.4 C
18.08.2004 02:00 17.3 C 100 % 1010.3 hPa 0.0 l/m 2.8 km/h (1 Bft) O-SO 17.3 C 17.3 C
18.08.2004 03:00 17.2 C 100 % 1010.2 hPa 0.0 l/m 1.6 km/h (1 Bft) O-NO 17.2 C 17.2 C
18.08.2004 04:00 16.8 C 100 % 1010.5 hPa 0.0 l/m 9.7 km/h (2 Bft) O-SO 16.8 C 16.8 C
18.08.2004 05:00 16.7 C 100 % 1010.7 hPa 0.0 l/m 0.6 km/h (0 Bft) O-NO 16.7 C 16.7 C
18.08.2004 06:00 16.5 C 100 % 1011.6 hPa 0.0 l/m 0.9 km/h (0 Bft) O 16.5 C 16.5 C
18.08.2004 07:00 16.6 C 100 % 1011.6 hPa 0.0 l/m 0.0 km/h (0 Bft) N 16.6 C 16.6 C
18.08.2004 08:00 17.5 C 100 % 1011.8 hPa 0.0 l/m 0.4 km/h (0 Bft) O 17.5 C 17.5 C
18.08.2004 09:00 18.4 C 97 % 1012.4 hPa 0.0 l/m 2.5 km/h (1 Bft) O-SO 17.9 C 18.4 C
18.08.2004 10:00 20.0 C 81 % 1012.2 hPa 0.0 l/m 1.1 km/h (0 Bft) SO 16.6 C 20.0 C
18.08.2004 11:00 21.2 C 71 % 1012.0 hPa 0.0 l/m 1.4 km/h (1 Bft) W 15.7 C 21.2 C
18.08.2004 12:00 23.7 C 61 % 1011.7 hPa 0.0 l/m 1.9 km/h (1 Bft) SO 15.8 C 23.7 C
18.08.2004 13:00 25.7 C 53 % 1011.1 hPa 0.0 l/m 4.0 km/h (1 Bft) O-SO 15.5 C 25.7 C
18.08.2004 14:00 27.7 C 46 % 1010.2 hPa 0.0 l/m 3.3 km/h (1 Bft) O-SO 15.0 C 27.7 C
18.08.2004 15:00 29.2 C 39 % 1009.1 hPa 0.0 l/m 3.4 km/h (1 Bft) O-SO 13.9 C 29.2 C
18.08.2004 16:00 29.5 C 38 % 1008.4 hPa 0.0 l/m 3.0 km/h (1 Bft) W-NW 13.9 C 29.5 C
18.08.2004 17:00 29.5 C 39 % 1007.3 hPa 0.0 l/m 2.8 km/h (1 Bft) O-SO 13.9 C 29.5 C
18.08.2004 18:00 28.6 C 41 % 1006.5 hPa 0.0 l/m 4.0 km/h (1 Bft) O-SO 14.2 C 28.6 C
18.08.2004 19:00 27.1 C 49 % 1006.1 hPa 0.0 l/m 0.6 km/h (0 Bft) N 15.4 C 27.1 C
18.08.2004 20:00 24.0 C 64 % 1006.7 hPa 0.0 l/m 0.6 km/h (0 Bft) O 16.7 C 24.0 C
18.08.2004 21:00 21.3 C 75 % 1008.2 hPa 0.0 l/m 1.0 km/h (0 Bft) O 16.6 C 21.3 C
18.08.2004 22:00 20.1 C 83 % 1009.0 hPa 0.0 l/m 2.5 km/h (1 Bft) O 17.1 C 20.1 C
18.08.2004 23:00 19.3 C 87 % 1009.1 hPa 0.0 l/m 4.2 km/h (1 Bft) O 17.0 C 19.3 C
19.08.2004 00:00 20.1 C 80 % 1010.7 hPa 0.0 l/m 27.2 km/h (4 Bft) O-SO 16.4 C 20.1 C
19.08.2004 01:00 19.3 C 71 % 1012.5 hPa 0.0 l/m 43.2 km/h (6 Bft) W-NW 13.9 C 19.3 C
19.08.2004 02:00 18.9 C 71 % 1013.7 hPa 0.0 l/m 26.0 km/h (4 Bft) W-NW 13.5 C 18.9 C
19.08.2004 03:00 18.6 C 74 % 1014.4 hPa 0.0 l/m 6.5 km/h (2 Bft) W-NW 13.9 C 18.6 C
19.08.2004 04:00 18.0 C 79 % 1014.5 hPa 0.0 l/m 4.0 km/h (1 Bft) O-SO 14.3 C 18.0 C
19.08.2004 05:00 16.9 C 89 % 1014.5 hPa 0.0 l/m 1.0 km/h (0 Bft) O-SO 15.1 C 16.9 C
19.08.2004 06:00 16.8 C 92 % 1014.1 hPa 0.0 l/m 1.4 km/h (1 Bft) O-SO 15.5 C 16.8 C
19.08.2004 07:00 17.2 C 93 % 1014.6 hPa 0.3 l/m 0.0 km/h (0 Bft) N 16.1 C 17.2 C
19.08.2004 08:00 17.5 C 95 % 1014.6 hPa 0.3 l/m 0.2 km/h (0 Bft) O-SO 16.7 C 17.5 C
19.08.2004 09:00 17.9 C 95 % 1014.6 hPa 0.6 l/m 0.3 km/h (0 Bft) O 17.1 C 17.9 C
19.08.2004 10:00 18.0 C 94 % 1015.4 hPa 0.0 l/m 0.6 km/h (0 Bft) W-NW 17.1 C 18.0 C
19.08.2004 11:00 18.3 C 94 % 1015.5 hPa 0.3 l/m 0.0 km/h (0 Bft) N 17.3 C 18.3 C
19.08.2004 12:00 18.6 C 93 % 1015.5 hPa 0.0 l/m 0.0 km/h (0 Bft) N 17.5 C 18.6 C
19.08.2004 13:00 19.1 C 93 % 1015.2 hPa 1.2 l/m 3.7 km/h (1 Bft) O-SO 17.9 C 19.1 C
19.08.2004 14:00 19.5 C 90 % 1014.5 hPa 0.0 l/m 0.6 km/h (0 Bft) SO 17.9 C 19.5 C
19.08.2004 15:00 19.5 C 92 % 1014.3 hPa 0.0 l/m 0.1 km/h (0 Bft) W 18.1 C 19.5 C
19.08.2004 16:00 19.1 C 88 % 1014.5 hPa 1.5 l/m 1.6 km/h (1 Bft) W-NW 17.1 C 19.1 C
19.08.2004 17:00 17.7 C 97 % 1014.9 hPa 2.5 l/m 0.1 km/h (0 Bft) N 17.1 C 17.7 C
19.08.2004 18:00 18.6 C 97 % 1014.0 hPa 0.0 l/m 2.2 km/h (1 Bft) O-SO 18.1 C 18.6 C
19.08.2004 19:00 18.6 C 91 % 1013.4 hPa 0.0 l/m 1.1 km/h (0 Bft) O-SO 17.1 C 18.6 C
19.08.2004 20:00 17.5 C 97 % 1014.1 hPa 2.5 l/m 1.3 km/h (1 Bft) O 17.0 C 17.5 C
19.08.2004 21:00 17.2 C 100 % 1014.6 hPa 4.3 l/m 1.0 km/h (0 Bft) SO 17.2 C 17.2 C
19.08.2004 22:00 16.8 C 100 % 1014.4 hPa 1.5 l/m 2.7 km/h (1 Bft) O-SO 16.8 C 16.8 C
19.08.2004 23:00 16.7 C 100 % 1014.4 hPa 0.6 l/m 0.1 km/h (0 Bft) O-SO 16.7 C 16.7 C
20.08.2004 00:00 16.5 C 100 % 1013.9 hPa 0.3 l/m 1.3 km/h (1 Bft) O-SO 16.5 C 16.5 C
20.08.2004 01:00 16.7 C 100 % 1013.8 hPa 0.0 l/m 0.0 km/h (0 Bft) N 16.7 C 16.7 C
20.08.2004 02:00 16.6 C 100 % 1013.7 hPa 0.6 l/m 0.9 km/h (0 Bft) O-SO 16.6 C 16.6 C
20.08.2004 03:00 16.4 C 100 % 1013.7 hPa 0.3 l/m 2.3 km/h (1 Bft) O-SO 16.4 C 16.4 C
20.08.2004 04:00 16.3 C 100 % 1014.0 hPa 0.0 l/m 1.1 km/h (0 Bft) O 16.3 C 16.3 C
20.08.2004 05:00 16.0 C 100 % 1013.7 hPa 0.3 l/m 3.9 km/h (1 Bft) O-SO 16.0 C 16.0 C
20.08.2004 06:00 15.9 C 100 % 1014.1 hPa 0.0 l/m 3.3 km/h (1 Bft) O-SO 15.9 C 15.9 C
20.08.2004 07:00 16.0 C 100 % 1014.2 hPa 0.0 l/m 0.5 km/h (0 Bft) SO 16.0 C 16.0 C
20.08.2004 08:00 16.9 C 100 % 1013.9 hPa 0.0 l/m 3.1 km/h (1 Bft) O-SO 16.9 C 16.9 C
20.08.2004 09:00 18.1 C 94 % 1013.9 hPa 0.0 l/m 2.0 km/h (1 Bft) W 17.2 C 18.1 C
20.08.2004 10:00 19.2 C 79 % 1014.0 hPa 0.0 l/m 11.5 km/h (2 Bft) W-NW 15.4 C 19.2 C
20.08.2004 11:00 19.2 C 71 % 1014.3 hPa 0.0 l/m 18.6 km/h (3 Bft) W-NW 13.7 C 19.2 C
20.08.2004 12:00 18.6 C 76 % 1014.0 hPa 1.5 l/m 12.3 km/h (3 Bft) W-NW 14.1 C 18.6 C
20.08.2004 13:00 18.0 C 92 % 1013.8 hPa 0.6 l/m 7.3 km/h (2 Bft) O-SO 16.6 C 18.0 C
20.08.2004 14:00 20.9 C 77 % 1012.9 hPa 0.0 l/m 5.5 km/h (1 Bft) O-SO 16.8 C 20.9 C
20.08.2004 15:00 21.5 C 71 % 1012.1 hPa 0.3 l/m 4.4 km/h (1 Bft) O-SO 16.0 C 21.5 C
20.08.2004 16:00 22.1 C 69 % 1011.9 hPa 0.0 l/m 4.0 km/h (1 Bft) O-SO 16.2 C 22.1 C
20.08.2004 17:00 22.0 C 66 % 1011.9 hPa 0.0 l/m 1.6 km/h (1 Bft) O-SO 15.2 C 22.0 C
20.08.2004 18:00 21.8 C 65 % 1011.1 hPa 0.0 l/m 1.1 km/h (1 Bft) O-SO 15.0 C 21.8 C
20.08.2004 19:00 20.8 C 72 % 1011.0 hPa 0.0 l/m 0.1 km/h (0 Bft) N 15.5 C 20.8 C
20.08.2004 20:00 18.7 C 83 % 1012.0 hPa 0.0 l/m 4.0 km/h (1 Bft) O-SO 15.7 C 18.7 C
20.08.2004 21:00 17.3 C 85 % 1012.8 hPa 0.0 l/m 15.5 km/h (3 Bft) O-SO 14.7 C 17.3 C
20.08.2004 22:00 16.3 C 66 % 1013.2 hPa 0.0 l/m 30.9 km/h (5 Bft) W-NW 9.9 C 16.3 C
20.08.2004 23:00 14.4 C 78 % 1013.7 hPa 0.0 l/m 0.9 km/h (0 Bft) W 10.5 C 14.4 C
21.08.2004 00:00 13.6 C 86 % 1014.1 hPa 0.0 l/m 0.2 km/h (0 Bft) N 11.3 C 13.6 C
21.08.2004 01:00 14.1 C 86 % 1014.0 hPa 0.0 l/m 3.6 km/h (1 Bft) SO 11.8 C 14.1 C
21.08.2004 02:00 14.3 C 88 % 1014.0 hPa 0.0 l/m 0.0 km/h (0 Bft) N 12.3 C 14.3 C
21.08.2004 03:00 14.5 C 86 % 1014.1 hPa 0.6 l/m 0.2 km/h (0 Bft) SO 12.2 C 14.5 C
21.08.2004 04:00 13.2 C 93 % 1014.2 hPa 0.0 l/m 0.4 km/h (0 Bft) SO 12.1 C 13.2 C
21.08.2004 05:00 12.8 C 98 % 1014.1 hPa 0.0 l/m 1.3 km/h (1 Bft) SO 12.5 C 12.8 C
21.08.2004 06:00 12.4 C 99 % 1015.0 hPa 0.0 l/m 1.2 km/h (1 Bft) SO 12.3 C 12.4 C
21.08.2004 07:00 13.5 C 97 % 1015.1 hPa 0.0 l/m 2.3 km/h (1 Bft) SO 13.0 C 13.5 C
21.08.2004 08:00 15.2 C 85 % 1014.9 hPa 0.0 l/m 0.5 km/h (0 Bft) SO 12.6 C 15.2 C
21.08.2004 09:00 15.3 C 83 % 1015.1 hPa 0.0 l/m 0.4 km/h (0 Bft) SO 12.4 C 15.3 C
21.08.2004 10:00 15.5 C 78 % 1015.9 hPa 0.3 l/m 13.9 km/h (3 Bft) W-NW 11.6 C 15.5 C
21.08.2004 11:00 15.4 C 75 % 1015.9 hPa 0.0 l/m 27.2 km/h (4 Bft) W-NW 10.9 C 15.4 C
21.08.2004 12:00 16.1 C 67 % 1016.4 hPa 0.0 l/m 34.9 km/h (5 Bft) W-NW 10.0 C 16.1 C
21.08.2004 13:00 15.9 C 63 % 1017.0 hPa 0.0 l/m 32.7 km/h (5 Bft) W-NW 8.9 C 15.9 C
21.08.2004 14:00 17.1 C 52 % 1017.5 hPa 0.0 l/m 33.8 km/h (5 Bft) W-NW 7.1 C 17.1 C
21.08.2004 15:00 17.7 C 47 % 1017.8 hPa 0.0 l/m 37.2 km/h (5 Bft) NW 6.2 C 17.7 C
21.08.2004 16:00 18.9 C 42 % 1018.3 hPa 0.0 l/m 29.1 km/h (5 Bft) W-NW 5.8 C 18.9 C
21.08.2004 17:00 19.2 C 42 % 1018.9 hPa 0.0 l/m 29.0 km/h (5 Bft) W-NW 5.7 C 19.2 C
21.08.2004 18:00 17.9 C 50 % 1019.7 hPa 0.0 l/m 15.6 km/h (3 Bft) W-NW 7.1 C 17.9 C
21.08.2004 19:00 16.9 C 55 % 1020.2 hPa 0.0 l/m 10.4 km/h (2 Bft) W-NW 7.8 C 16.9 C
21.08.2004 20:00 15.8 C 62 % 1021.2 hPa 0.0 l/m 6.4 km/h (2 Bft) W-NW 8.6 C 15.8 C
21.08.2004 21:00 15.2 C 68 % 1022.1 hPa 0.0 l/m 8.2 km/h (2 Bft) W-NW 9.3 C 15.2 C
21.08.2004 22:00 14.6 C 72 % 1023.2 hPa 0.0 l/m 3.7 km/h (1 Bft) W 9.5 C 14.6 C
21.08.2004 23:00 13.8 C 83 % 1023.7 hPa 0.0 l/m 1.5 km/h (1 Bft) W 10.9 C 13.8 C
22.08.2004 00:00 14.0 C 82 % 1023.9 hPa 0.0 l/m 1.8 km/h (1 Bft) W-NW 11.0 C 14.0 C
22.08.2004 01:00 13.8 C 83 % 1023.6 hPa 0.0 l/m 1.0 km/h (0 Bft) W-NW 10.9 C 13.8 C
22.08.2004 02:00 13.6 C 86 % 1023.4 hPa 0.0 l/m 0.6 km/h (0 Bft) W-NW 11.3 C 13.6 C
22.08.2004 03:00 13.5 C 87 % 1023.4 hPa 0.0 l/m 0.0 km/h (0 Bft) N 11.4 C 13.5 C
22.08.2004 04:00 13.0 C 90 % 1023.5 hPa 0.0 l/m 0.0 km/h (0 Bft) N 11.3 C 13.0 C
22.08.2004 05:00 13.0 C 93 % 1023.5 hPa 0.0 l/m 0.0 km/h (0 Bft) N 12.0 C 13.0 C
22.08.2004 06:00 12.8 C 94 % 1023.2 hPa 0.0 l/m 0.0 km/h (0 Bft) N 11.8 C 12.8 C
22.08.2004 07:00 13.4 C 92 % 1023.4 hPa 0.0 l/m 0.0 km/h (0 Bft) N 12.1 C 13.4 C
22.08.2004 08:00 14.2 C 84 % 1023.3 hPa 0.0 l/m 1.0 km/h (0 Bft) S-SO 11.4 C 14.2 C
22.08.2004 09:00 15.6 C 75 % 1023.1 hPa 0.0 l/m 1.2 km/h (1 Bft) O-NO 11.1 C 15.6 C
22.08.2004 10:00 17.0 C 66 % 1022.9 hPa 0.0 l/m 2.1 km/h (1 Bft) O 10.7 C 17.0 C
22.08.2004 11:00 18.6 C 58 % 1022.7 hPa 0.0 l/m 3.0 km/h (1 Bft) N 10.2 C 18.6 C
22.08.2004 12:00 20.3 C 53 % 1021.7 hPa 0.0 l/m 11.3 km/h (2 Bft) O-SO 10.3 C 20.3 C
22.08.2004 13:00 21.2 C 50 % 1021.2 hPa 0.0 l/m 5.3 km/h (1 Bft) O-SO 10.4 C 21.2 C
22.08.2004 14:00 22.2 C 47 % 1020.2 hPa 0.0 l/m 7.9 km/h (2 Bft) O-SO 10.2 C 22.2 C
22.08.2004 15:00 22.3 C 45 % 1020.2 hPa 0.0 l/m 8.5 km/h (2 Bft) O-SO 9.7 C 22.3 C
22.08.2004 16:00 23.1 C 44 % 1020.0 hPa 0.0 l/m 9.2 km/h (2 Bft) O-SO 10.0 C 23.1 C
22.08.2004 17:00 23.1 C 41 % 1019.1 hPa 0.0 l/m 7.0 km/h (2 Bft) O-SO 9.3 C 23.1 C
22.08.2004 18:00 21.8 C 44 % 1019.2 hPa 0.0 l/m 8.5 km/h (2 Bft) O-SO 8.8 C 21.8 C
22.08.2004 19:00 20.3 C 52 % 1019.4 hPa 0.0 l/m 2.7 km/h (1 Bft) O-SO 10.0 C 20.3 C
22.08.2004 20:00 18.2 C 64 % 1019.7 hPa 0.0 l/m 1.1 km/h (1 Bft) O-SO 11.3 C 18.2 C
22.08.2004 21:00 16.8 C 73 % 1020.1 hPa 0.0 l/m 0.0 km/h (0 Bft) N 12.0 C 16.8 C
22.08.2004 22:00 15.9 C 81 % 1020.0 hPa 0.0 l/m 0.0 km/h (0 Bft) N 12.6 C 15.9 C
22.08.2004 23:00 15.0 C 84 % 1020.1 hPa 0.0 l/m 0.0 km/h (0 Bft) N 12.4 C 15.0 C
Min-Datum _ 16.08.04 18.08.04 18.08.04 - 16.08.04 - 21.08.04 16.08.04
_ Min-Zeit 06:12 15:28 18:37 - 00:04 - 16:24 06:12
Minimum _ 10.7 C 36 % 1005.9 hPa - 0.0 km/h (0 Bft) - 4.1 C 10.7 C
Max-Datum _ 18.08.04 16.08.04 21.08.04 17.08.04 19.08.04 - 17.08.04 18.08.04
_ Max-Zeit 15:43 03:24 23:30 19:18 00:42 - 15:52 15:43
Maximum _ 29.9 C 100 % 1024.4 hPa 4.6 l/m 57.2 km/h
O-SO (7 Bft)
- 19.4 C 29.9 C
Durchschnitt _ 18.0 C 82 % 1014.5 hPa #35.3 l/m 4.6 km/h (1 Bft) O-SO 14.4 C 18.0 C

Durchschnitt Minimum Temp.17.3 C
Durchschnitt Maximum Temp.18.8 C
© Kaiko 2004